Time;durP1;ratioP1;P1;durP2;ratioP2;P2;SDS_P1;SDS_P2;PMS_P1;PMS_P2;Temp;Humidity;BMP_temperature;BMP_pressure;BME280_temperature;BME280_humidity;BME280_pressure;Samples;Min_cycle;Max_cycle;Signal;HPM_P1;HPM_P2
2022/07/03 00:01:29;;;;;;;2.40;2.15;;;17.60;99.90;;;;;;5082592;28;20020;-58
2022/07/03 00:03:55;;;;;;;1.90;1.70;;;17.60;99.90;;;;;;5082906;28;20115;-60
2022/07/03 00:06:21;;;;;;;3.28;1.80;;;17.60;99.90;;;;;;5082389;28;20470;-61
2022/07/03 00:08:47;;;;;;;2.55;1.75;;;17.60;99.90;;;;;;5076565;28;20036;-61
2022/07/03 00:11:12;;;;;;;1.90;1.77;;;17.60;99.90;;;;;;5089103;28;20124;-60
2022/07/03 00:13:38;;;;;;;2.17;1.98;;;17.50;99.90;;;;;;5087270;28;20107;-59
2022/07/03 00:16:04;;;;;;;3.75;2.15;;;17.50;99.90;;;;;;5082247;28;20056;-59
2022/07/03 00:18:29;;;;;;;2.90;1.95;;;17.50;99.90;;;;;;5078770;28;20036;-60
2022/07/03 00:21:02;;;;;;;4.95;2.20;;;17.50;99.90;;;;;;5089006;28;20032;-60
2022/07/03 00:23:30;;;;;;;2.33;1.63;;;17.50;99.90;;;;;;5081856;28;20023;-60
2022/07/03 00:25:58;;;;;;;2.20;2.00;;;17.50;99.90;;;;;;5083315;28;20692;-60
2022/07/03 00:28:24;;;;;;;2.03;1.40;;;17.50;99.90;;;;;;5064184;28;20036;-61
2022/07/03 00:30:51;;;;;;;3.92;2.10;;;17.60;99.90;;;;;;5083512;28;20028;-59
2022/07/03 00:33:18;;;;;;;2.05;1.65;;;17.60;99.90;;;;;;5091400;28;20039;-60
2022/07/03 00:35:44;;;;;;;1.88;1.75;;;17.60;99.90;;;;;;5086163;28;20478;-59
2022/07/03 00:38:11;;;;;;;2.10;2.00;;;17.60;99.90;;;;;;5085518;28;20375;-59
2022/07/03 00:40:37;;;;;;;1.90;1.48;;;17.60;99.90;;;;;;5079452;28;20103;-60
2022/07/03 00:43:04;;;;;;;2.50;1.50;;;17.70;99.90;;;;;;5083605;28;20104;-59
2022/07/03 00:45:34;;;;;;;1.70;1.60;;;17.70;99.90;;;;;;5074222;28;20032;-59
2022/07/03 00:48:00;;;;;;;2.28;1.35;;;17.80;99.90;;;;;;5082444;28;20033;-59
2022/07/03 00:50:34;;;;;;;1.80;1.70;;;17.80;99.90;;;;;;5078010;28;20035;-62
2022/07/03 00:53:01;;;;;;;1.60;1.50;;;17.80;99.90;;;;;;5080754;28;20032;-60
2022/07/03 00:55:28;;;;;;;1.77;1.67;;;17.90;99.90;;;;;;5064991;28;20020;-60
2022/07/03 00:57:56;;;;;;;1.70;1.60;;;17.90;99.90;;;;;;5077705;28;20036;-61
2022/07/03 01:00:22;;;;;;;2.15;1.98;;;17.90;99.90;;;;;;5080079;28;20022;-60
2022/07/03 01:02:59;;;;;;;1.98;1.70;;;17.90;99.90;;;;;;5078123;28;20024;-60
2022/07/03 01:05:40;;;;;;;1.63;1.52;;;17.90;99.90;;;;;;5073582;28;20443;-60
2022/07/03 01:08:24;;;;;;;1.77;1.67;;;17.90;99.90;;;;;;5080907;28;20486;-61
2022/07/03 01:11:07;;;;;;;1.63;1.45;;;18.00;99.90;;;;;;5083369;28;20150;-58
2022/07/03 01:13:45;;;;;;;5.22;1.60;;;18.00;99.90;;;;;;5076751;28;20082;-61
2022/07/03 01:16:26;;;;;;;2.67;1.65;;;18.00;99.90;;;;;;5083131;28;20363;-59
2022/07/03 01:19:08;;;;;;;1.50;1.40;;;18.10;99.90;;;;;;5077268;28;20398;-61
2022/07/03 01:21:33;;;;;;;3.95;1.80;;;18.10;99.90;;;;;;5079444;28;20584;-59
2022/07/03 01:24:16;;;;;;;1.95;1.85;;;18.10;99.90;;;;;;5075146;28;20056;-59
2022/07/03 01:26:45;;;;;;;1.83;1.73;;;18.10;99.90;;;;;;5074089;28;20066;-59
2022/07/03 01:29:18;;;;;;;1.88;1.70;;;18.10;99.90;;;;;;5082171;28;20016;-62
2022/07/03 01:31:47;;;;;;;1.88;1.50;;;18.10;99.90;;;;;;5082105;28;20023;-61
2022/07/03 01:34:15;;;;;;;2.30;1.70;;;18.10;99.90;;;;;;5080078;28;20393;-61
2022/07/03 01:36:43;;;;;;;1.55;1.45;;;18.10;99.90;;;;;;5081652;28;20016;-60
2022/07/03 01:39:11;;;;;;;1.92;1.63;;;18.10;99.90;;;;;;5081764;28;20352;-58
2022/07/03 01:41:37;;;;;;;2.33;1.52;;;18.00;99.90;;;;;;5082747;28;20016;-58
2022/07/03 01:44:04;;;;;;;2.28;1.50;;;18.00;99.90;;;;;;5073859;28;20120;-60
2022/07/03 01:46:32;;;;;;;1.65;1.40;;;18.00;99.90;;;;;;5080380;28;20162;-60
2022/07/03 01:48:59;;;;;;;2.15;1.65;;;18.00;99.90;;;;;;5079580;28;20402;-57
2022/07/03 01:51:26;;;;;;;3.00;1.55;;;18.00;99.90;;;;;;5075323;28;20020;-60
2022/07/03 01:53:53;;;;;;;2.63;1.70;;;18.00;99.90;;;;;;5074100;28;20020;-60
2022/07/03 01:56:20;;;;;;;2.13;1.92;;;18.00;99.90;;;;;;5082650;28;20410;-58
2022/07/03 01:58:46;;;;;;;1.75;1.65;;;17.90;99.90;;;;;;5082525;28;20024;-60
2022/07/03 02:01:39;;;;;;;2.10;1.83;;;17.90;99.90;;;;;;5079155;28;20020;-59
2022/07/03 02:04:33;;;;;;;1.90;1.55;;;17.90;99.90;;;;;;5083820;28;20409;-58
2022/07/03 02:07:31;;;;;;;2.00;1.70;;;17.80;99.90;;;;;;5082544;28;20028;-58
2022/07/03 02:10:05;;;;;;;1.83;1.50;;;17.90;99.90;;;;;;5080132;28;20047;-60
2022/07/03 02:12:44;;;;;;;2.33;1.60;;;17.80;99.90;;;;;;5075327;28;20111;-60
2022/07/03 02:15:11;;;;;;;1.98;1.60;;;17.80;99.90;;;;;;5081259;28;20031;-61
2022/07/03 02:17:42;;;;;;;2.55;1.65;;;17.80;99.90;;;;;;5077076;28;20493;-59
2022/07/03 02:20:08;;;;;;;1.50;1.40;;;17.80;99.90;;;;;;5080985;28;20036;-60
2022/07/03 02:22:40;;;;;;;2.72;1.85;;;17.80;99.90;;;;;;5072791;28;20617;-57
2022/07/03 02:25:07;;;;;;;5.50;1.90;;;17.70;99.90;;;;;;5079339;28;20032;-58
2022/07/03 02:27:50;;;;;;;1.60;1.50;;;17.70;99.90;;;;;;5080249;28;20056;-59
2022/07/03 02:30:16;;;;;;;1.40;1.30;;;17.70;99.90;;;;;;5069215;28;20042;-58
2022/07/03 02:32:49;;;;;;;1.90;1.50;;;17.70;99.90;;;;;;5078889;28;20092;-60
2022/07/03 02:35:32;;;;;;;1.70;1.60;;;17.70;99.90;;;;;;5069560;28;20020;-59
2022/07/03 02:38:17;;;;;;;3.30;1.67;;;17.60;99.90;;;;;;5079661;28;20502;-59
2022/07/03 02:40:58;;;;;;;1.70;1.60;;;17.60;99.90;;;;;;5075672;28;20029;-60
2022/07/03 02:43:57;;;;;;;1.85;1.63;;;17.60;99.90;;;;;;5076544;28;20020;-60
2022/07/03 02:46:49;;;;;;;4.85;1.75;;;17.60;99.90;;;;;;5073824;28;20454;-59
2022/07/03 02:49:27;;;;;;;1.45;1.35;;;17.60;99.90;;;;;;5067181;28;20471;-60
2022/07/03 02:52:20;;;;;;;1.98;1.50;;;17.50;99.90;;;;;;5078177;28;20028;-60
2022/07/03 02:54:47;;;;;;;1.70;1.60;;;17.50;99.90;;;;;;5081061;28;20016;-60
2022/07/03 02:57:16;;;;;;;1.60;1.48;;;17.50;99.90;;;;;;5074377;28;20478;-59
2022/07/03 02:59:56;;;;;;;2.47;1.50;;;17.50;99.90;;;;;;5073288;28;20520;-61
2022/07/03 03:02:21;;;;;;;2.40;1.90;;;17.40;99.90;;;;;;5071810;28;20025;-60
2022/07/03 03:05:01;;;;;;;2.60;1.83;;;17.40;99.90;;;;;;5073822;28;20032;-59
2022/07/03 03:07:34;;;;;;;1.70;1.60;;;17.40;99.90;;;;;;5071727;28;20115;-60
2022/07/03 03:09:59;;;;;;;1.70;1.60;;;17.40;99.90;;;;;;5075730;28;20178;-59
2022/07/03 03:12:37;;;;;;;2.47;1.98;;;17.40;99.90;;;;;;5074663;28;20068;-60
2022/07/03 03:15:04;;;;;;;2.45;1.58;;;17.30;99.90;;;;;;5070710;28;20025;-58
2022/07/03 03:17:42;;;;;;;1.88;1.77;;;17.30;99.90;;;;;;5079757;28;20027;-60
2022/07/03 03:20:12;;;;;;;2.00;1.80;;;17.30;99.90;;;;;;5079154;28;20029;-60
2022/07/03 03:22:55;;;;;;;1.70;1.60;;;17.30;99.90;;;;;;5068257;28;20024;-57
2022/07/03 03:25:21;;;;;;;1.60;1.52;;;17.30;99.90;;;;;;5079095;28;20040;-59
2022/07/03 03:27:47;;;;;;;2.28;1.35;;;17.30;99.90;;;;;;5080842;28;20070;-60
2022/07/03 03:30:13;;;;;;;2.42;1.75;;;17.30;99.90;;;;;;5060964;28;20044;-56
2022/07/03 03:32:40;;;;;;;2.53;1.85;;;17.20;99.90;;;;;;5080109;28;20021;-55
2022/07/03 03:35:06;;;;;;;1.77;1.67;;;17.20;99.90;;;;;;5073153;28;20409;-57
2022/07/03 03:37:32;;;;;;;1.67;1.58;;;17.20;99.90;;;;;;5079835;28;20035;-57
2022/07/03 03:39:58;;;;;;;2.53;1.90;;;17.20;99.90;;;;;;5069133;28;20033;-58
2022/07/03 03:42:23;;;;;;;1.95;1.60;;;17.20;99.90;;;;;;5080411;28;20020;-57
2022/07/03 03:44:49;;;;;;;2.83;1.40;;;17.20;99.90;;;;;;5069003;28;20060;-57
2022/07/03 03:47:15;;;;;;;2.58;2.22;;;17.20;99.90;;;;;;5077354;28;20103;-57
2022/07/03 03:49:40;;;;;;;1.95;1.70;;;17.10;99.90;;;;;;5080080;28;20036;-58
2022/07/03 03:52:06;;;;;;;1.50;1.40;;;17.10;99.90;;;;;;5077614;28;20035;-58
2022/07/03 03:54:32;;;;;;;2.65;2.10;;;17.10;99.90;;;;;;5077859;28;20036;-55
2022/07/03 03:57:13;;;;;;;2.80;2.10;;;17.10;99.90;;;;;;5079319;28;20028;-60
2022/07/03 03:59:39;;;;;;;2.47;2.00;;;17.00;99.90;;;;;;5077008;28;20382;-58
2022/07/03 04:02:05;;;;;;;1.98;1.88;;;17.00;99.90;;;;;;5083879;28;20020;-59
2022/07/03 04:04:30;;;;;;;1.90;1.80;;;17.00;99.90;;;;;;5076606;28;20538;-59
2022/07/03 04:06:56;;;;;;;2.97;2.30;;;17.00;99.90;;;;;;5084608;28;20043;-59
2022/07/03 04:09:21;;;;;;;1.77;1.67;;;17.00;99.90;;;;;;5074701;28;20025;-60
2022/07/03 04:11:47;;;;;;;1.88;1.77;;;17.00;99.90;;;;;;5076486;28;20021;-60
2022/07/03 04:14:13;;;;;;;2.35;2.15;;;17.00;99.90;;;;;;5073714;28;20394;-59
2022/07/03 04:16:38;;;;;;;3.72;1.80;;;17.00;99.90;;;;;;5075281;28;20032;-60
2022/07/03 04:19:04;;;;;;;2.22;1.90;;;17.00;99.90;;;;;;5078831;28;20021;-59
2022/07/03 04:21:29;;;;;;;2.00;1.90;;;16.90;99.90;;;;;;5081519;28;20038;-60
2022/07/03 04:23:55;;;;;;;3.15;2.25;;;16.90;99.90;;;;;;5072229;28;20024;-61
2022/07/03 04:26:21;;;;;;;5.15;2.25;;;16.90;99.90;;;;;;5082095;28;20059;-61
2022/07/03 04:28:46;;;;;;;2.15;1.80;;;16.90;99.90;;;;;;5077848;28;20397;-61
2022/07/03 04:31:12;;;;;;;2.20;2.03;;;16.90;99.90;;;;;;5077621;28;20123;-60
2022/07/03 04:33:37;;;;;;;3.38;1.95;;;16.90;99.90;;;;;;5079945;28;20035;-60
2022/07/03 04:36:04;;;;;;;2.05;1.80;;;16.90;99.90;;;;;;5081726;28;20031;-61
2022/07/03 04:38:31;;;;;;;2.83;1.83;;;16.90;99.90;;;;;;5083215;28;20032;-58
2022/07/03 04:40:56;;;;;;;1.70;1.60;;;16.90;99.90;;;;;;5081376;28;20505;-62
2022/07/03 04:43:22;;;;;;;2.60;1.95;;;16.90;99.90;;;;;;5079937;28;20028;-61
2022/07/03 04:45:48;;;;;;;2.20;2.10;;;16.90;99.90;;;;;;5082100;28;20056;-60
2022/07/03 04:48:13;;;;;;;2.42;1.83;;;17.00;99.90;;;;;;5077310;28;20566;-61
2022/07/03 04:50:39;;;;;;;3.00;1.85;;;17.00;99.90;;;;;;5073001;28;20036;-59
2022/07/03 04:53:05;;;;;;;2.60;2.40;;;17.00;99.90;;;;;;5079990;28;20024;-59
2022/07/03 04:55:30;;;;;;;2.03;1.92;;;17.00;99.90;;;;;;5071031;28;20035;-59
2022/07/03 04:57:56;;;;;;;2.30;2.10;;;17.00;99.90;;;;;;5081076;28;20029;-61
2022/07/03 05:00:21;;;;;;;2.20;1.70;;;17.00;99.90;;;;;;5080656;28;20016;-58
2022/07/03 05:02:47;;;;;;;2.10;2.00;;;17.00;99.90;;;;;;5074330;28;20099;-61
2022/07/03 05:05:12;;;;;;;2.10;1.90;;;17.10;99.90;;;;;;5082714;28;20477;-61
2022/07/03 05:07:38;;;;;;;1.92;1.83;;;17.10;99.90;;;;;;5076581;28;20540;-60
2022/07/03 05:10:04;;;;;;;2.28;2.08;;;17.20;99.90;;;;;;5080510;28;20039;-58
2022/07/03 05:12:30;;;;;;;1.95;1.77;;;17.20;99.90;;;;;;5081806;28;20028;-57
2022/07/03 05:14:55;;;;;;;2.38;2.17;;;17.30;99.90;;;;;;5080924;28;20028;-59
2022/07/03 05:17:21;;;;;;;2.38;2.17;;;17.40;99.90;;;;;;5072991;28;20513;-59
2022/07/03 05:19:46;;;;;;;1.63;1.52;;;17.40;99.90;;;;;;5082097;28;20031;-60
2022/07/03 05:22:12;;;;;;;2.00;1.90;;;17.40;99.90;;;;;;5079189;28;20021;-60
2022/07/03 05:24:38;;;;;;;2.10;1.90;;;17.50;99.90;;;;;;5075776;28;20043;-59
2022/07/03 05:27:04;;;;;;;1.85;1.75;;;17.50;99.90;;;;;;5081780;28;20032;-60
2022/07/03 05:29:29;;;;;;;2.00;1.90;;;17.60;99.90;;;;;;5081685;28;20133;-61
2022/07/03 05:31:55;;;;;;;1.90;1.80;;;17.60;99.90;;;;;;5071746;28;20032;-61
2022/07/03 05:34:21;;;;;;;3.03;2.10;;;17.70;99.90;;;;;;5082749;28;20020;-60
2022/07/03 05:36:46;;;;;;;1.60;1.50;;;17.80;99.90;;;;;;5082229;28;20434;-60
2022/07/03 05:41:56;;;;;;;1.73;1.63;;;17.90;99.90;;;;;;5066824;28;20031;-59
2022/07/03 05:44:22;;;;;;;2.15;2.00;;;18.00;99.90;;;;;;5067058;28;20024;-58
2022/07/03 05:46:47;;;;;;;1.70;1.60;;;18.20;99.90;;;;;;5074255;28;20058;-60
2022/07/03 05:49:13;;;;;;;2.10;2.00;;;18.30;99.90;;;;;;5068116;28;20401;-60
2022/07/03 05:51:38;;;;;;;2.00;1.80;;;18.40;99.90;;;;;;5065045;28;20115;-59
2022/07/03 05:54:04;;;;;;;1.92;1.83;;;18.60;99.90;;;;;;5070086;28;20363;-60
2022/07/03 05:56:29;;;;;;;3.35;1.80;;;18.80;99.90;;;;;;5068336;28;20384;-59
2022/07/03 05:58:55;;;;;;;2.00;1.80;;;19.00;99.90;;;;;;5068428;28;20128;-60
2022/07/03 06:01:23;;;;;;;1.80;1.70;;;19.10;99.90;;;;;;5069666;28;20025;-58
2022/07/03 06:03:49;;;;;;;2.83;1.98;;;19.30;99.90;;;;;;5052396;28;20025;-59
2022/07/03 06:06:14;;;;;;;3.22;1.63;;;19.50;99.90;;;;;;5068047;28;20034;-61
2022/07/03 06:08:40;;;;;;;2.53;1.60;;;19.60;99.90;;;;;;5070359;28;20636;-60
2022/07/03 06:11:05;;;;;;;2.05;1.67;;;19.80;99.90;;;;;;5058490;28;20033;-59
2022/07/03 06:13:31;;;;;;;1.48;1.38;;;20.00;99.90;;;;;;5070106;28;20043;-59
2022/07/03 06:15:56;;;;;;;1.70;1.60;;;20.30;99.90;;;;;;5065101;28;20024;-60
2022/07/03 06:18:22;;;;;;;3.38;1.67;;;20.50;99.90;;;;;;5067724;28;20497;-60
2022/07/03 06:20:48;;;;;;;4.25;2.05;;;20.80;99.90;;;;;;5051081;28;20074;-59
2022/07/03 06:23:13;;;;;;;4.13;2.00;;;21.00;99.90;;;;;;5065910;28;20104;-61
2022/07/03 06:25:39;;;;;;;1.52;1.42;;;21.20;99.90;;;;;;5057341;28;20029;-60
2022/07/03 06:28:04;;;;;;;3.47;1.75;;;21.30;99.90;;;;;;5067740;28;20020;-59
2022/07/03 06:30:30;;;;;;;1.88;1.70;;;21.50;99.90;;;;;;5069680;28;20119;-60
2022/07/03 06:32:55;;;;;;;1.90;1.70;;;21.60;99.90;;;;;;5064911;28;20449;-60
2022/07/03 06:35:21;;;;;;;1.83;1.73;;;21.80;99.90;;;;;;5068659;28;20121;-60
2022/07/03 06:37:46;;;;;;;2.05;1.73;;;21.80;99.90;;;;;;5065388;28;20020;-57
2022/07/03 06:40:12;;;;;;;2.25;1.80;;;21.90;99.90;;;;;;5066605;28;20025;-57
2022/07/03 06:42:37;;;;;;;1.98;1.75;;;22.00;99.90;;;;;;5069532;28;20120;-58
2022/07/03 06:45:03;;;;;;;1.20;1.10;;;21.90;99.90;;;;;;5065439;28;20399;-58
2022/07/03 06:47:29;;;;;;;2.00;1.80;;;22.10;99.90;;;;;;5069636;28;20032;-60
2022/07/03 06:49:54;;;;;;;2.53;1.88;;;22.20;99.90;;;;;;5065751;28;20399;-59
2022/07/03 06:52:20;;;;;;;3.63;1.60;;;22.30;99.90;;;;;;5066142;28;20048;-59
2022/07/03 06:54:46;;;;;;;3.22;1.60;;;22.40;99.90;;;;;;5069180;28;20032;-58
2022/07/03 06:57:14;;;;;;;1.92;1.50;;;22.50;99.60;;;;;;5065556;28;20024;-59
2022/07/03 06:59:41;;;;;;;1.98;1.70;;;22.70;99.90;;;;;;5069254;28;20096;-57
2022/07/03 07:02:07;;;;;;;1.88;1.52;;;22.80;99.90;;;;;;5066233;28;20025;-59
2022/07/03 07:04:33;;;;;;;2.50;1.52;;;23.00;99.90;;;;;;5067131;28;20451;-58
2022/07/03 07:06:59;;;;;;;1.42;0.98;;;23.20;99.90;;;;;;5059834;28;20021;-60
2022/07/03 07:09:24;;;;;;;2.85;1.77;;;23.20;98.70;;;;;;5064622;28;20033;-60
2022/07/03 07:11:50;;;;;;;1.75;1.50;;;23.40;99.80;;;;;;5068855;28;20043;-59
2022/07/03 07:14:15;;;;;;;3.15;1.48;;;23.50;99.80;;;;;;5046658;28;20032;-60
2022/07/03 07:16:41;;;;;;;1.65;1.40;;;23.60;97.20;;;;;;5068361;28;20028;-60
2022/07/03 07:19:06;;;;;;;2.15;1.55;;;23.70;99.50;;;;;;5063629;28;20401;-60
2022/07/03 07:21:32;;;;;;;2.40;1.30;;;23.80;98.60;;;;;;5064613;28;20613;-58
2022/07/03 07:23:57;;;;;;;1.48;1.38;;;23.90;98.20;;;;;;5062742;28;20032;-59
2022/07/03 07:26:23;;;;;;;2.03;1.50;;;24.10;97.50;;;;;;5067764;28;20101;-58
2022/07/03 07:28:48;;;;;;;1.45;1.30;;;24.20;96.00;;;;;;5050896;28;20020;-60
2022/07/03 07:31:14;;;;;;;1.23;1.13;;;24.20;96.70;;;;;;5064612;28;20107;-59
2022/07/03 07:33:39;;;;;;;1.88;1.45;;;24.20;97.60;;;;;;5068566;28;20028;-59
2022/07/03 07:36:05;;;;;;;1.73;1.25;;;24.30;97.00;;;;;;5066581;28;20020;-59
2022/07/03 07:38:31;;;;;;;1.80;1.10;;;24.50;96.20;;;;;;5068272;28;20078;-57
2022/07/03 07:40:56;;;;;;;4.18;1.75;;;24.70;96.10;;;;;;5067811;28;20036;-59
2022/07/03 07:43:22;;;;;;;1.70;1.60;;;24.80;95.10;;;;;;5067371;28;20141;-60
2022/07/03 07:45:48;;;;;;;2.75;1.30;;;25.00;96.00;;;;;;5069101;28;20028;-60
2022/07/03 07:48:13;;;;;;;2.53;1.50;;;25.10;94.40;;;;;;5068361;28;20447;-60
2022/07/03 07:50:39;;;;;;;2.28;1.45;;;25.10;95.10;;;;;;5069113;28;20032;-60
2022/07/03 07:53:05;;;;;;;1.77;1.48;;;25.20;96.30;;;;;;5066689;28;20450;-60
2022/07/03 07:55:30;;;;;;;1.98;1.35;;;25.50;95.60;;;;;;5068386;28;20024;-60
2022/07/03 07:57:56;;;;;;;2.45;1.58;;;25.60;96.40;;;;;;5065007;28;20095;-60
2022/07/03 08:00:22;;;;;;;2.63;1.35;;;25.70;93.60;;;;;;5067424;28;20017;-58
2022/07/03 08:05:36;;;;;;;3.80;1.48;;;26.00;94.60;;;;;;5063272;28;20039;-60
2022/07/03 08:08:09;;;;;;;2.15;1.38;;;26.30;94.80;;;;;;5062803;28;20457;-60
2022/07/03 08:10:54;;;;;;;2.33;1.52;;;26.50;94.40;;;;;;5069826;28;20032;-60
2022/07/03 08:13:21;;;;;;;1.42;1.13;;;26.80;92.50;;;;;;5072141;28;20111;-60
2022/07/03 08:15:49;;;;;;;1.30;1.20;;;26.80;91.30;;;;;;5071436;28;20398;-59
2022/07/03 08:18:15;;;;;;;1.88;1.50;;;26.80;93.00;;;;;;5071171;28;20024;-60
2022/07/03 08:20:41;;;;;;;3.30;1.88;;;26.80;91.80;;;;;;5053512;28;20032;-60
2022/07/03 08:23:06;;;;;;;2.03;1.23;;;26.70;91.40;;;;;;5061276;28;20170;-61
2022/07/03 08:25:33;;;;;;;1.33;1.23;;;26.80;87.30;;;;;;5067088;28;20052;-61
2022/07/03 08:27:59;;;;;;;3.35;1.58;;;26.70;91.30;;;;;;5068579;28;20445;-60
2022/07/03 08:30:25;;;;;;;1.15;1.08;;;26.60;90.00;;;;;;5072143;28;20043;-61
2022/07/03 08:32:53;;;;;;;1.20;1.10;;;26.80;90.50;;;;;;5067500;28;20099;-60
2022/07/03 08:35:19;;;;;;;2.30;1.13;;;27.10;91.50;;;;;;5071424;28;20066;-61
2022/07/03 08:37:47;;;;;;;2.35;1.33;;;27.20;87.60;;;;;;5066914;28;20020;-60
2022/07/03 08:40:14;;;;;;;1.98;1.00;;;27.20;90.70;;;;;;5053957;28;20352;-60
2022/07/03 08:42:51;;;;;;;1.40;1.15;;;27.00;90.20;;;;;;5065495;28;20013;-61
2022/07/03 08:45:18;;;;;;;1.95;1.50;;;26.90;88.80;;;;;;5070786;28;20091;-60
2022/07/03 08:47:46;;;;;;;1.40;1.17;;;26.40;90.50;;;;;;5071500;28;20027;-59
2022/07/03 08:50:12;;;;;;;2.65;1.30;;;26.10;90.50;;;;;;5048430;28;20056;-60
2022/07/03 08:52:39;;;;;;;2.03;1.10;;;26.10;90.30;;;;;;5071120;28;20047;-60
2022/07/03 08:55:07;;;;;;;3.92;1.20;;;25.90;88.20;;;;;;5069151;28;20107;-61
2022/07/03 08:57:35;;;;;;;1.50;1.33;;;25.90;90.20;;;;;;5059945;28;20651;-61
2022/07/03 09:00:04;;;;;;;1.98;1.48;;;25.70;87.30;;;;;;5069887;28;20100;-61
2022/07/03 09:02:31;;;;;;;1.30;1.20;;;25.70;89.00;;;;;;5065887;28;20013;-58
2022/07/03 09:04:59;;;;;;;3.88;1.50;;;26.00;90.40;;;;;;5069287;28;20028;-59
2022/07/03 09:07:26;;;;;;;1.65;1.27;;;26.10;91.50;;;;;;5070591;28;20028;-59
2022/07/03 09:09:52;;;;;;;4.45;1.50;;;26.30;91.40;;;;;;5068033;28;20024;-59
2022/07/03 09:12:19;;;;;;;1.30;1.20;;;26.40;90.40;;;;;;5069889;28;20032;-59
2022/07/03 09:14:44;;;;;;;1.40;1.10;;;26.50;90.20;;;;;;5066928;28;20021;-60
2022/07/03 09:17:11;;;;;;;1.25;1.15;;;26.40;90.30;;;;;;5071125;28;20481;-59
2022/07/03 09:20:03;;;;;;;1.80;1.38;;;26.20;90.60;;;;;;5067236;28;20438;-59
2022/07/03 09:22:37;;;;;;;1.38;1.05;;;26.10;90.50;;;;;;5056746;28;20113;-60
2022/07/03 09:25:06;;;;;;;1.40;1.25;;;26.00;91.00;;;;;;5068912;28;20020;-59
2022/07/03 09:27:32;;;;;;;7.68;1.60;;;25.70;90.00;;;;;;5066518;28;20024;-60
2022/07/03 09:30:02;;;;;;;1.45;1.10;;;25.70;91.00;;;;;;5068459;28;20650;-60
2022/07/03 09:32:37;;;;;;;1.88;1.30;;;25.60;90.40;;;;;;5064441;28;20029;-59
2022/07/03 09:35:25;;;;;;;1.15;1.05;;;25.60;91.50;;;;;;5066917;28;20694;-59
2022/07/03 09:37:59;;;;;;;1.73;1.23;;;25.50;92.00;;;;;;5067632;28;20508;-59
2022/07/03 09:40:27;;;;;;;2.42;1.60;;;25.40;91.70;;;;;;5067223;28;20027;-59
2022/07/03 09:42:58;;;;;;;1.67;0.95;;;25.40;91.60;;;;;;5067404;28;20024;-59
2022/07/03 09:45:24;;;;;;;3.35;1.38;;;25.30;91.60;;;;;;5068431;28;20054;-60
2022/07/03 09:47:50;;;;;;;1.40;1.30;;;25.30;91.90;;;;;;5070130;28;20028;-57
2022/07/03 09:50:16;;;;;;;1.33;1.23;;;25.40;92.80;;;;;;5065041;28;20032;-59
2022/07/03 09:52:44;;;;;;;1.30;1.13;;;25.70;94.30;;;;;;5069609;28;20032;-60
2022/07/03 09:55:10;;;;;;;2.47;1.70;;;26.00;92.60;;;;;;5055084;28;20632;-60
2022/07/03 09:57:46;;;;;;;1.65;1.40;;;26.10;91.60;;;;;;5067093;28;20111;-60
2022/07/03 10:00:36;;;;;;;4.88;2.30;;;26.10;90.80;;;;;;5066380;28;20160;-59
2022/07/03 10:03:03;;;;;;;2.05;1.25;;;26.00;91.90;;;;;;5065637;28;20016;-57
2022/07/03 10:05:34;;;;;;;2.15;1.17;;;25.90;91.90;;;;;;5067978;28;20032;-60
2022/07/03 10:08:03;;;;;;;2.25;1.20;;;26.00;91.20;;;;;;5064557;28;20024;-59
2022/07/03 10:10:35;;;;;;;2.22;1.55;;;26.10;92.00;;;;;;5066788;28;20040;-60
2022/07/03 10:13:02;;;;;;;2.45;1.45;;;26.20;89.50;;;;;;5065384;28;20024;-59
2022/07/03 10:15:29;;;;;;;3.22;1.45;;;26.10;86.60;;;;;;5066059;28;20410;-58
2022/07/03 10:17:59;;;;;;;1.23;1.00;;;26.20;90.00;;;;;;5062842;28;20037;-59
2022/07/03 10:20:44;;;;;;;3.30;2.03;;;26.20;86.80;;;;;;5065321;28;20016;-59
2022/07/03 10:23:11;;;;;;;2.40;1.45;;;26.20;89.10;;;;;;5061636;28;20043;-58
2022/07/03 10:25:40;;;;;;;1.50;1.00;;;26.20;83.90;;;;;;5064118;28;20580;-59
2022/07/03 10:28:06;;;;;;;1.33;1.10;;;26.10;81.50;;;;;;5069026;28;20437;-58
2022/07/03 10:30:34;;;;;;;1.25;1.15;;;26.00;84.90;;;;;;5069704;28;20024;-60
2022/07/03 10:32:59;;;;;;;2.33;1.10;;;26.00;85.40;;;;;;5066986;28;20033;-59
2022/07/03 10:35:33;;;;;;;8.45;3.80;;;26.10;84.60;;;;;;5068882;28;20143;-60
2022/07/03 10:38:02;;;;;;;2.08;1.20;;;26.10;83.80;;;;;;5068143;28;20025;-60
2022/07/03 10:46:21;;;;;;;1.52;1.00;;;26.20;83.50;;;;;;5061866;28;20027;-60
2022/07/03 10:49:00;;;;;;;2.55;1.27;;;26.20;82.90;;;;;;5047391;28;20154;-60
2022/07/03 10:51:27;;;;;;;1.80;0.85;;;26.00;80.50;;;;;;5063084;28;20536;-59
2022/07/03 10:54:41;;;;;;;1.35;0.98;;;26.10;82.60;;;;;;5063511;28;20494;-59
2022/07/03 10:57:08;;;;;;;2.20;1.65;;;26.20;84.10;;;;;;5065984;28;20471;-59
2022/07/03 10:59:46;;;;;;;1.58;1.45;;;26.40;84.90;;;;;;5068180;28;20021;-56
2022/07/03 11:02:41;;;;;;;2.08;1.67;;;26.50;84.40;;;;;;5048110;28;20047;-59
2022/07/03 11:05:20;;;;;;;7.43;6.72;;;26.60;85.80;;;;;;5067742;28;20119;-60
2022/07/03 11:07:51;;;;;;;3.20;1.90;;;26.70;83.90;;;;;;5063428;28;20104;-59
2022/07/03 11:10:19;;;;;;;6.90;5.80;;;26.60;83.70;;;;;;5061118;28;20025;-58
2022/07/03 11:13:04;;;;;;;3.05;1.20;;;26.70;85.80;;;;;;5060750;28;20503;-60
2022/07/03 11:15:36;;;;;;;4.20;1.00;;;26.80;84.70;;;;;;5065802;28;20154;-57
2022/07/03 11:18:05;;;;;;;3.65;1.35;;;26.90;86.70;;;;;;5067316;28;20013;-59
2022/07/03 11:20:34;;;;;;;4.95;4.45;;;26.90;86.70;;;;;;5064488;28;20032;-58
2022/07/03 11:23:10;;;;;;;6.88;5.78;;;26.90;86.90;;;;;;5066455;28;20020;-56
2022/07/03 11:25:44;;;;;;;16.73;14.88;;;27.00;82.30;;;;;;5063455;28;20106;-59
2022/07/03 11:28:34;;;;;;;4.93;4.53;;;27.00;84.90;;;;;;5065312;28;20029;-59
2022/07/03 11:33:55;;;;;;;49.20;39.55;;;27.10;86.90;;;;;;5060884;28;20044;-58
2022/07/03 11:36:25;;;;;;;3.17;2.58;;;27.10;82.40;;;;;;5058375;28;20020;-58
2022/07/03 11:39:02;;;;;;;2.10;1.05;;;27.00;83.40;;;;;;5063329;28;20056;-58
2022/07/03 11:41:43;;;;;;;1.90;1.05;;;27.10;82.30;;;;;;5168533;22;20240;-53
2022/07/03 11:44:10;;;;;;;1.00;1.00;;;27.00;84.20;;;;;;5079121;28;20109;-52
2022/07/03 11:46:38;;;;;;;1.42;1.33;;;27.00;81.80;;;;;;5070939;28;20486;-53
2022/07/03 11:49:15;;;;;;;1.40;1.13;;;26.70;81.00;;;;;;5087707;28;20020;-54
2022/07/03 11:51:43;;;;;;;2.00;1.00;;;26.90;83.20;;;;;;5059352;28;20033;-52
2022/07/03 11:54:09;;;;;;;2.58;1.35;;;27.10;86.50;;;;;;5078584;28;20032;-55
2022/07/03 11:56:36;;;;;;;4.32;1.20;;;27.00;82.20;;;;;;5080347;28;20410;-52
2022/07/03 11:59:04;;;;;;;2.30;1.40;;;27.10;83.90;;;;;;5078209;28;20028;-52
2022/07/03 12:01:35;;;;;;;2.38;1.20;;;27.10;83.10;;;;;;5081560;28;20021;-52
2022/07/03 12:04:09;;;;;;;1.77;1.52;;;27.10;87.50;;;;;;5078972;28;20501;-55
2022/07/03 12:06:46;;;;;;;3.20;2.92;;;27.20;87.00;;;;;;5078186;28;20422;-51
2022/07/03 12:09:13;;;;;;;1.15;1.05;;;27.00;84.80;;;;;;5077842;28;20573;-55
2022/07/03 12:11:39;;;;;;;3.28;1.10;;;26.90;86.60;;;;;;5076913;28;20031;-53
2022/07/03 12:14:05;;;;;;;1.73;1.30;;;26.80;86.70;;;;;;5080753;28;20036;-54
2022/07/03 12:16:34;;;;;;;1.35;0.90;;;26.70;86.00;;;;;;5077245;28;20024;-50
2022/07/03 12:19:05;;;;;;;1.55;1.20;;;26.90;85.50;;;;;;5080957;28;20036;-54
2022/07/03 12:21:38;;;;;;;0.98;0.82;;;27.00;82.40;;;;;;5076735;28;20035;-53
2022/07/03 12:24:13;;;;;;;1.15;1.00;;;27.10;82.90;;;;;;5076133;28;20032;-55
2022/07/03 12:26:39;;;;;;;0.82;0.63;;;26.90;82.00;;;;;;5075117;28;20021;-48
2022/07/03 12:29:10;;;;;;;2.67;0.93;;;26.90;85.80;;;;;;5073452;28;20394;-50
2022/07/03 12:31:39;;;;;;;2.45;1.10;;;26.90;83.90;;;;;;5078031;28;20044;-53
2022/07/03 12:34:05;;;;;;;1.52;0.98;;;26.90;82.70;;;;;;5073219;28;20044;-56
2022/07/03 12:36:31;;;;;;;0.93;0.73;;;26.80;82.40;;;;;;5081255;28;20082;-54
2022/07/03 12:38:59;;;;;;;0.75;0.75;;;26.90;80.60;;;;;;5077775;28;20471;-54
2022/07/03 12:41:25;;;;;;;2.60;0.90;;;27.00;79.40;;;;;;5080030;28;20103;-54
2022/07/03 12:43:54;;;;;;;1.75;0.77;;;27.00;80.90;;;;;;5058381;28;20146;-56
2022/07/03 12:46:24;;;;;;;0.88;0.80;;;27.10;80.20;;;;;;5078872;28;20032;-52
2022/07/03 12:48:57;;;;;;;0.95;0.88;;;27.20;78.50;;;;;;5078077;28;20024;-55
2022/07/03 12:51:41;;;;;;;1.13;0.63;;;27.20;78.00;;;;;;5078617;28;20189;-56
2022/07/03 12:54:15;;;;;;;1.00;0.60;;;27.40;75.90;;;;;;5077627;28;20087;-53
2022/07/03 12:56:43;;;;;;;2.33;0.85;;;27.60;77.60;;;;;;5082061;28;20020;-54
2022/07/03 12:59:28;;;;;;;1.10;0.68;;;27.80;79.40;;;;;;5080083;28;20029;-56
2022/07/03 13:02:04;;;;;;;2.53;1.00;;;28.00;77.30;;;;;;5086553;28;20020;-54
2022/07/03 13:04:40;;;;;;;1.70;0.80;;;28.20;75.30;;;;;;5061075;28;20067;-52
2022/07/03 13:07:06;;;;;;;;;;;28.20;74.70;;;;;;5088226;28;20067;-52
2022/07/03 13:09:36;;;;;;;1.02;0.60;;;28.10;73.20;;;;;;5079954;28;19904;-56
2022/07/03 13:12:03;;;;;;;1.48;0.50;;;27.90;74.00;;;;;;5061794;28;20111;-54
2022/07/03 13:14:29;;;;;;;1.05;0.60;;;27.80;75.90;;;;;;5079717;28;20497;-51